Time;durP1;ratioP1;P1;durP2;ratioP2;P2;SDS_P1;SDS_P2;PMS_P1;PMS_P2;Temp;Humidity;BMP_temperature;BMP_pressure;BME280_temperature;BME280_humidity;BME280_pressure;Samples;Min_cycle;Max_cycle;Signal;HPM_P1;HPM_P2
2021/09/20 00:00:09;;;;;;;5.53;2.72;;;;;;;11.53;94.43;95434.84;4983887;28;20100;-76
2021/09/20 00:02:55;;;;;;;5.10;2.70;;;;;;;11.63;94.44;95441.09;4984539;28;20409;-76
2021/09/20 00:05:20;;;;;;;5.30;2.75;;;;;;;11.64;94.16;95445.28;4985706;28;20053;-76
2021/09/20 00:07:46;;;;;;;5.38;2.85;;;;;;;11.68;94.06;95435.75;4981617;28;20057;-76
2021/09/20 00:10:12;;;;;;;6.32;3.10;;;;;;;11.52;93.98;95437.75;4992957;28;20096;-76
2021/09/20 00:12:37;;;;;;;4.80;2.83;;;;;;;11.42;95.18;95441.25;5008511;28;20041;-76
2021/09/20 00:15:04;;;;;;;5.78;2.83;;;;;;;11.37;95.53;95443.94;4987218;28;20047;-76
2021/09/20 00:17:29;;;;;;;5.20;2.90;;;;;;;11.47;95.50;95437.81;5001930;28;20042;-76
2021/09/20 00:19:55;;;;;;;6.15;2.78;;;;;;;11.43;95.08;95440.19;4982014;28;20046;-76
2021/09/20 00:22:21;;;;;;;5.40;3.08;;;;;;;11.40;95.80;95438.13;5004131;28;20049;-76
2021/09/20 00:24:46;;;;;;;4.95;3.00;;;;;;;11.66;94.49;95443.16;4977156;28;20129;-76
2021/09/20 00:27:12;;;;;;;7.15;3.45;;;;;;;11.46;94.75;95444.13;4995883;28;20061;-76
2021/09/20 00:29:38;;;;;;;6.40;3.50;;;;;;;11.56;94.27;95444.81;4989549;28;20774;-76
2021/09/20 00:32:04;;;;;;;6.40;3.17;;;;;;;11.40;94.83;95440.75;4997165;28;20053;-76
2021/09/20 00:34:31;;;;;;;6.60;3.60;;;;;;;11.54;94.36;95440.91;4972223;28;20053;-76
2021/09/20 00:36:56;;;;;;;6.38;3.63;;;;;;;11.47;94.37;95441.22;4969285;28;20047;-76
2021/09/20 00:39:22;;;;;;;7.15;4.28;;;;;;;11.49;94.85;95441.72;4969365;28;20058;-76
2021/09/20 00:41:47;;;;;;;5.03;3.15;;;;;;;11.42;94.75;95438.63;4978681;28;20492;-76
2021/09/20 00:44:13;;;;;;;5.45;3.15;;;;;;;11.43;94.82;95441.00;4981189;28;20691;-76
2021/09/20 00:46:38;;;;;;;5.60;3.03;;;;;;;11.40;95.56;95440.75;4974954;28;20540;-76
2021/09/20 00:49:05;;;;;;;6.95;3.45;;;;;;;11.50;94.57;95440.66;4983440;28;20043;-76
2021/09/20 00:51:30;;;;;;;4.93;3.00;;;;;;;11.49;95.17;95449.63;4994078;28;20061;-76
2021/09/20 00:53:56;;;;;;;6.25;3.35;;;;;;;11.46;94.57;95444.13;4994548;28;20101;-76
2021/09/20 00:56:22;;;;;;;5.25;3.08;;;;;;;11.55;95.24;95440.63;4988868;28;20727;-76
2021/09/20 00:58:48;;;;;;;7.68;3.35;;;;;;;11.65;94.14;95441.59;4989319;28;20050;-76
2021/09/20 01:01:13;;;;;;;6.18;3.50;;;;;;;11.43;94.92;95445.47;4992323;28;20892;-76
2021/09/20 01:03:40;;;;;;;5.20;3.03;;;;;;;11.52;94.64;95443.81;4987520;28;20066;-76
2021/09/20 01:06:06;;;;;;;7.40;3.50;;;;;;;11.57;94.15;95446.41;4990175;28;20077;-76
2021/09/20 01:08:32;;;;;;;7.55;3.58;;;;;;;11.55;94.43;95445.91;4991938;28;20070;-76
2021/09/20 01:10:57;;;;;;;6.70;3.17;;;;;;;11.63;93.96;95454.28;4991936;28;20050;-76
2021/09/20 01:13:23;;;;;;;5.63;3.28;;;;;;;11.65;93.71;95452.94;5004790;28;20504;-76
2021/09/20 01:15:48;;;;;;;6.63;3.60;;;;;;;11.59;93.47;95449.56;4975000;28;20093;-76
2021/09/20 01:18:14;;;;;;;7.07;3.90;;;;;;;11.47;94.15;95457.03;5008439;28;20042;-76
2021/09/20 01:20:40;;;;;;;6.35;3.45;;;;;;;11.42;94.65;95457.84;5009924;28;20038;-76
2021/09/20 01:23:05;;;;;;;6.80;3.70;;;;;;;11.55;93.84;95458.28;4995037;28;20035;-76
2021/09/20 01:25:31;;;;;;;8.95;3.90;;;;;;;11.45;94.18;95467.06;4973677;28;20057;-76
2021/09/20 01:27:57;;;;;;;6.35;3.72;;;;;;;11.46;94.31;95460.72;4977861;28;20058;-76
2021/09/20 01:30:24;;;;;;;6.75;3.95;;;;;;;11.42;94.71;95464.97;4988420;28;20038;-76
2021/09/20 01:32:50;;;;;;;7.90;4.10;;;;;;;11.43;94.25;95469.19;5005504;28;20571;-76
2021/09/20 01:35:23;;;;;;;6.38;3.80;;;;;;;11.47;94.67;95467.56;4977931;28;20058;-76
2021/09/20 01:37:49;;;;;;;6.57;3.58;;;;;;;11.44;94.82;95473.41;4998614;28;20121;-76
2021/09/20 01:40:16;;;;;;;6.50;3.63;;;;;;;11.48;94.24;95477.06;4987165;28;20042;-76
2021/09/20 01:42:42;;;;;;;9.30;4.20;;;;;;;11.38;94.77;95480.53;4985181;28;20162;-76
2021/09/20 01:45:09;;;;;;;7.55;4.32;;;;;;;11.39;94.87;95476.06;4979937;28;20058;-76
2021/09/20 01:47:35;;;;;;;7.57;3.97;;;;;;;11.41;94.39;95484.50;4995659;28;20455;-76
2021/09/20 01:50:01;;;;;;;6.65;4.10;;;;;;;11.39;95.12;95483.97;4994818;28;20050;-76
2021/09/20 01:52:27;;;;;;;8.77;4.55;;;;;;;11.24;94.85;95477.75;5002827;28;20047;-76
2021/09/20 01:54:53;;;;;;;7.32;4.30;;;;;;;11.39;94.62;95481.31;4976470;28;20053;-76
2021/09/20 01:57:22;;;;;;;7.70;4.60;;;;;;;11.38;94.77;95482.41;4986438;28;20051;-76
2021/09/20 01:59:49;;;;;;;7.88;4.30;;;;;;;11.38;94.29;95487.69;4983480;28;20455;-76
2021/09/20 02:02:14;;;;;;;8.25;4.50;;;;;;;11.24;95.31;95480.38;4986993;28;20046;-76
2021/09/20 02:04:40;;;;;;;9.35;5.25;;;;;;;11.30;95.25;95482.97;4977855;28;20567;-76
2021/09/20 02:07:05;;;;;;;9.15;5.18;;;;;;;11.37;94.59;95483.47;4990925;28;20038;-76
2021/09/20 02:09:31;;;;;;;9.15;4.93;;;;;;;11.31;94.97;95479.28;4993816;28;20221;-76
2021/09/20 02:11:56;;;;;;;8.50;5.18;;;;;;;11.30;95.06;95488.25;5008614;28;20037;-76
2021/09/20 02:14:22;;;;;;;9.18;4.50;;;;;;;11.19;95.07;95483.06;4997900;28;20038;-76
2021/09/20 02:16:48;;;;;;;10.80;4.47;;;;;;;11.30;95.28;95482.97;4970149;28;20039;-76
2021/09/20 02:19:14;;;;;;;8.43;4.85;;;;;;;11.31;94.37;95484.56;4978903;28;20038;-76
2021/09/20 02:21:40;;;;;;;7.38;4.88;;;;;;;11.26;94.87;95483.53;4981065;28;20511;-76
2021/09/20 02:24:06;;;;;;;9.50;5.22;;;;;;;11.24;94.89;95485.63;4984471;28;20676;-76
2021/09/20 02:26:31;;;;;;;8.27;4.78;;;;;;;11.35;94.58;95485.56;4974670;28;20385;-76
2021/09/20 02:28:56;;;;;;;8.25;4.88;;;;;;;11.38;94.38;95485.03;4978050;28;20066;-76
2021/09/20 02:31:22;;;;;;;8.82;4.38;;;;;;;11.27;94.94;95487.72;4993215;28;20571;-76
2021/09/20 02:33:48;;;;;;;7.63;4.60;;;;;;;11.29;94.95;95486.66;4983713;28;20034;-76
2021/09/20 02:36:14;;;;;;;8.68;4.80;;;;;;;11.30;94.95;95491.66;4984039;28;20063;-76
2021/09/20 02:38:40;;;;;;;7.95;4.45;;;;;;;11.30;95.17;95488.25;4974292;28;20039;-76
2021/09/20 02:41:06;;;;;;;8.90;4.63;;;;;;;11.24;96.14;95485.63;4995237;28;20120;-76
2021/09/20 02:43:32;;;;;;;7.82;4.35;;;;;;;11.29;95.27;95481.41;4989456;28;20121;-76
2021/09/20 02:45:58;;;;;;;7.90;4.22;;;;;;;11.23;95.58;95488.56;4991022;28;20500;-76
2021/09/20 02:48:24;;;;;;;7.93;4.32;;;;;;;11.27;95.21;95485.09;4990174;28;20049;-76
2021/09/20 02:50:49;;;;;;;7.80;4.35;;;;;;;11.26;95.09;95483.53;4994705;28;20100;-76
2021/09/20 02:53:15;;;;;;;8.48;4.30;;;;;;;11.21;95.24;95480.91;4988936;28;20489;-76
2021/09/20 02:55:41;;;;;;;8.23;4.85;;;;;;;11.35;94.91;95491.63;4970599;28;20050;-76
2021/09/20 02:58:06;;;;;;;12.13;6.95;;;;;;;11.33;94.37;95491.09;4980307;28;20520;-76
2021/09/20 03:00:32;;;;;;;11.63;6.55;;;;;;;11.39;94.18;95497.13;4989735;28;20046;-76
2021/09/20 03:02:57;;;;;;;13.75;8.18;;;;;;;11.38;93.26;95495.59;4988637;28;20042;-75
2021/09/20 03:05:23;;;;;;;14.93;8.23;;;;;;;11.40;93.32;95498.72;4984184;28;20124;-76
2021/09/20 03:07:49;;;;;;;16.40;9.07;;;;;;;11.26;92.98;95494.06;4975805;28;20046;-76
2021/09/20 03:10:14;;;;;;;16.85;9.15;;;;;;;11.31;92.79;95503.00;4980812;28;20051;-76
2021/09/20 03:12:40;;;;;;;16.00;9.52;;;;;;;11.47;92.46;95498.41;4996912;28;20138;-76
2021/09/20 03:15:06;;;;;;;15.50;8.80;;;;;;;11.38;92.49;95500.84;4970088;28;20562;-76
2021/09/20 03:17:32;;;;;;;15.25;8.70;;;;;;;11.31;92.84;95505.63;4978572;28;20045;-76
2021/09/20 03:19:58;;;;;;;17.90;9.55;;;;;;;11.38;92.64;95495.59;4992201;28;20046;-76
2021/09/20 03:22:25;;;;;;;16.63;9.23;;;;;;;11.36;92.80;95497.69;5004142;28;20050;-76
2021/09/20 03:24:51;;;;;;;17.25;9.70;;;;;;;11.27;93.54;95503.53;4980656;28;20077;-76
2021/09/20 03:27:18;;;;;;;15.68;9.07;;;;;;;11.39;92.32;95502.41;4989010;28;20508;-76
2021/09/20 03:29:44;;;;;;;20.08;10.40;;;;;;;11.25;93.38;95503.03;4984731;28;20074;-76
2021/09/20 03:32:09;;;;;;;18.80;9.73;;;;;;;11.33;92.69;95508.78;4982796;28;20042;-76
2021/09/20 03:34:35;;;;;;;21.10;10.23;;;;;;;11.29;92.91;95507.75;4986983;28;20073;-76
2021/09/20 03:37:01;;;;;;;17.30;9.82;;;;;;;11.15;93.18;95505.72;4993975;28;20574;-76
2021/09/20 03:39:27;;;;;;;20.05;10.55;;;;;;;11.22;93.42;95508.84;4992539;28;20050;-76
2021/09/20 03:41:52;;;;;;;20.85;10.15;;;;;;;11.20;93.78;95510.94;4988952;28;20504;-76
2021/09/20 03:44:18;;;;;;;21.65;11.85;;;;;;;11.07;93.16;95511.56;4993388;28;20056;-76
2021/09/20 03:46:44;;;;;;;19.98;10.57;;;;;;;11.14;93.41;95512.03;4986288;28;20050;-76
2021/09/20 03:49:09;;;;;;;20.10;10.88;;;;;;;11.20;92.48;95518.84;4984675;28;20509;-76
2021/09/20 03:51:35;;;;;;;23.80;11.50;;;;;;;11.11;91.99;95517.88;4987421;28;20050;-75
2021/09/20 03:54:00;;;;;;;21.65;11.93;;;;;;;10.98;92.47;95524.50;4995534;28;20056;-76
2021/09/20 03:56:26;;;;;;;21.30;11.77;;;;;;;11.02;92.63;95519.47;4969684;28;20050;-76
2021/09/20 03:58:53;;;;;;;23.02;12.25;;;;;;;11.06;91.90;95526.59;4995490;28;20046;-76
2021/09/20 04:01:19;;;;;;;21.92;12.07;;;;;;;11.00;92.49;95526.88;5005361;28;21761;-76
2021/09/20 04:03:45;;;;;;;21.92;12.23;;;;;;;10.87;93.14;95522.97;4982946;28;20125;-76
2021/09/20 04:06:10;;;;;;;26.73;14.35;;;;;;;10.70;96.43;95533.84;4976664;28;20548;-76
2021/09/20 04:08:36;;;;;;;24.65;13.35;;;;;;;10.80;97.96;95527.75;4979089;28;20057;-76
2021/09/20 04:11:01;;;;;;;24.33;13.65;;;;;;;10.66;97.29;95532.78;4988324;28;20679;-76
2021/09/20 04:13:27;;;;;;;26.58;14.13;;;;;;;10.69;98.72;95542.81;4988423;28;20043;-76
2021/09/20 04:15:53;;;;;;;28.15;14.35;;;;;;;10.54;99.54;95533.09;4969270;28;20043;-76
2021/09/20 04:18:27;;;;;;;28.23;13.38;;;;;;;10.70;98.22;95539.09;4994329;28;20420;-76
2021/09/20 04:20:55;;;;;;;24.42;14.13;;;;;;;10.75;99.18;95544.34;4999761;28;20039;-76
2021/09/20 04:23:23;;;;;;;27.63;14.45;;;;;;;10.72;98.46;95542.28;4989698;28;20385;-76
2021/09/20 04:25:49;;;;;;;24.88;13.27;;;;;;;10.69;98.34;95540.19;4990166;28;20100;-76
2021/09/20 04:28:16;;;;;;;26.75;13.65;;;;;;;10.64;100.00;95543.59;4989037;28;20050;-76
2021/09/20 04:30:45;;;;;;;25.55;13.50;;;;;;;10.82;100.00;95536.97;4984748;28;20047;-76
2021/09/20 04:33:12;;;;;;;22.33;12.07;;;;;;;10.97;98.86;95544.00;4998914;28;20033;-75
2021/09/20 04:35:39;;;;;;;25.48;12.48;;;;;;;10.92;99.22;95542.19;5008788;28;20096;-76
2021/09/20 04:38:05;;;;;;;22.08;11.50;;;;;;;10.95;99.12;95550.59;4987026;28;20101;-76
2021/09/20 04:40:31;;;;;;;26.00;12.25;;;;;;;10.87;100.00;95555.34;4992266;28;20120;-76
2021/09/20 04:42:57;;;;;;;27.77;13.85;;;;;;;10.69;99.82;95550.72;4991570;28;20050;-76
2021/09/20 04:45:22;;;;;;;24.45;12.52;;;;;;;10.65;99.73;95557.56;4973966;28;20046;-76
2021/09/20 04:47:48;;;;;;;23.88;12.98;;;;;;;10.66;100.00;95557.28;4978625;28;20503;-76
2021/09/20 04:50:13;;;;;;;24.83;13.27;;;;;;;10.63;100.00;95562.28;4991779;28;20042;-76
2021/09/20 04:52:39;;;;;;;25.98;12.68;;;;;;;10.50;100.00;95561.81;4988526;28;20045;-76
2021/09/20 04:55:05;;;;;;;24.70;13.50;;;;;;;10.53;100.00;95561.28;4971343;28;20070;-76
2021/09/20 04:57:30;;;;;;;26.67;13.32;;;;;;;10.65;100.00;95557.56;4977559;28;20081;-76
2021/09/20 04:59:56;;;;;;;24.95;12.48;;;;;;;10.72;99.47;95563.31;4999317;28;20038;-76
2021/09/20 05:02:21;;;;;;;25.52;13.02;;;;;;;10.81;98.92;95572.22;4985869;28;20588;-76
2021/09/20 05:04:47;;;;;;;23.20;12.27;;;;;;;10.85;97.99;95578.53;5011987;28;20103;-76
2021/09/20 05:07:13;;;;;;;24.58;13.23;;;;;;;10.82;97.96;95579.06;4983888;28;20043;-76
2021/09/20 05:09:38;;;;;;;24.00;11.90;;;;;;;10.71;97.95;95577.53;4991737;28;21388;-76
2021/09/20 05:12:04;;;;;;;25.00;11.93;;;;;;;10.74;97.99;95582.25;4990791;28;20050;-76
2021/09/20 05:14:30;;;;;;;23.73;12.15;;;;;;;10.70;99.00;95581.22;4997047;28;20038;-76
2021/09/20 05:16:58;;;;;;;22.20;11.90;;;;;;;10.68;98.74;95578.06;4978442;28;20047;-76
2021/09/20 05:19:25;;;;;;;26.77;13.35;;;;;;;10.63;100.00;95584.16;4990443;28;20703;-76
2021/09/20 05:21:51;;;;;;;27.70;13.35;;;;;;;10.57;99.27;95582.56;5004925;28;20046;-76
2021/09/20 05:24:16;;;;;;;25.13;13.00;;;;;;;10.78;98.20;95585.16;5011739;28;20080;-76
2021/09/20 05:26:42;;;;;;;26.30;13.23;;;;;;;10.84;96.59;95592.75;4992354;28;20129;-76
2021/09/20 05:29:08;;;;;;;23.50;12.80;;;;;;;10.85;96.94;95591.69;4988245;28;20039;-76
2021/09/20 05:31:34;;;;;;;24.60;13.15;;;;;;;10.76;98.28;95590.69;4986907;28;20125;-76
2021/09/20 05:33:59;;;;;;;24.05;12.43;;;;;;;10.78;98.07;95593.84;4990361;28;20097;-76
2021/09/20 05:36:25;;;;;;;23.73;12.93;;;;;;;10.71;98.88;95593.31;4983521;28;20764;-76
2021/09/20 05:38:50;;;;;;;25.98;13.20;;;;;;;10.54;100.00;95589.16;4982617;28;20046;-76
2021/09/20 05:41:16;;;;;;;26.15;13.30;;;;;;;10.57;99.83;95588.63;4997030;28;20516;-76
2021/09/20 05:43:41;;;;;;;25.08;14.02;;;;;;;10.57;100.00;95593.91;4989997;28;20049;-76
2021/09/20 05:46:07;;;;;;;27.13;13.07;;;;;;;10.68;98.09;95588.59;4993905;28;20038;-76
2021/09/20 05:48:33;;;;;;;23.63;12.80;;;;;;;10.57;99.12;95593.91;4992759;28;20144;-76
2021/09/20 05:50:58;;;;;;;26.60;13.35;;;;;;;10.62;99.61;95594.94;4989841;28;20424;-76
2021/09/20 05:53:24;;;;;;;24.23;13.02;;;;;;;10.56;100.00;95602.84;4994792;28;20424;-76
2021/09/20 05:55:50;;;;;;;26.17;13.52;;;;;;;10.69;99.53;95603.34;4989868;28;20041;-76
2021/09/20 05:58:15;;;;;;;30.60;14.52;;;;;;;10.58;100.00;95611.25;4992756;28;20046;-76
2021/09/20 06:00:41;;;;;;;27.23;13.40;;;;;;;10.51;100.00;95609.94;4981410;28;20069;-76
2021/09/20 06:03:07;;;;;;;29.30;13.75;;;;;;;10.62;99.23;95610.72;4989924;28;20057;-76
2021/09/20 06:05:37;;;;;;;28.40;13.05;;;;;;;10.41;100.00;95610.75;4991128;28;20038;-76
2021/09/20 06:08:03;;;;;;;28.48;13.63;;;;;;;10.57;99.55;95609.69;4990771;28;20511;-76
2021/09/20 06:10:29;;;;;;;28.05;13.88;;;;;;;10.72;98.31;95610.69;4991755;28;20050;-76
2021/09/20 06:12:54;;;;;;;34.20;15.18;;;;;;;10.63;99.44;95617.56;4990828;28;20532;-76
2021/09/20 06:15:20;;;;;;;30.45;13.93;;;;;;;10.74;99.04;95613.84;4989010;28;20043;-75
2021/09/20 06:17:45;;;;;;;28.65;14.43;;;;;;;10.33;99.57;95619.13;4983011;28;20039;-75
2021/09/20 06:20:11;;;;;;;27.42;12.73;;;;;;;10.58;99.74;95611.25;4990568;28;20050;-75
2021/09/20 06:22:37;;;;;;;25.88;13.93;;;;;;;10.61;99.29;95619.66;4985526;28;20112;-75
2021/09/20 06:25:04;;;;;;;28.05;13.77;;;;;;;10.58;100.00;95616.50;4972356;28;20053;-75
2021/09/20 06:27:30;;;;;;;24.58;12.27;;;;;;;10.67;99.62;95626.50;4984427;28;20042;-76
2021/09/20 06:29:55;;;;;;;26.05;13.23;;;;;;;10.46;100.00;95618.66;4995942;28;20046;-75
2021/09/20 06:32:21;;;;;;;22.05;11.77;;;;;;;10.68;98.70;95620.19;4984212;28;20062;-76
2021/09/20 06:34:47;;;;;;;26.15;13.32;;;;;;;10.47;98.79;95620.19;4991604;28;20582;-74
2021/09/20 06:37:13;;;;;;;25.83;12.88;;;;;;;10.64;99.53;95619.13;4998006;28;20057;-74
2021/09/20 06:39:39;;;;;;;29.02;12.98;;;;;;;10.49;96.92;95618.09;4991566;28;20064;-74
2021/09/20 06:42:06;;;;;;;26.33;12.88;;;;;;;10.71;99.06;95624.91;4991765;28;20471;-74
2021/09/20 06:44:33;;;;;;;24.75;12.55;;;;;;;10.74;97.88;95613.84;4994532;28;20527;-74
2021/09/20 06:46:59;;;;;;;28.02;12.77;;;;;;;10.70;97.89;95628.59;4996021;28;20042;-74
2021/09/20 06:49:24;;;;;;;27.05;13.40;;;;;;;10.57;97.50;95622.84;4994192;28;20073;-74
2021/09/20 06:51:51;;;;;;;30.75;13.57;;;;;;;10.49;97.75;95626.00;4991149;28;20039;-74
2021/09/20 06:54:21;;;;;;;27.50;13.25;;;;;;;10.46;97.58;95623.91;5010215;28;20030;-74
2021/09/20 06:56:47;;;;;;;27.98;13.85;;;;;;;10.53;99.30;95624.41;5015121;28;20040;-73
2021/09/20 06:59:12;;;;;;;29.65;15.30;;;;;;;10.53;98.17;95628.88;5016080;28;20034;-73
2021/09/20 07:01:38;;;;;;;37.20;16.73;;;;;;;10.54;99.49;95631.28;5016015;28;20042;-73
2021/09/20 07:04:04;;;;;;;29.70;14.30;;;;;;;10.33;97.05;95634.91;5014366;28;20034;-74
2021/09/20 07:06:30;;;;;;;32.28;14.93;;;;;;;10.57;100.00;95635.19;5022801;28;20028;-74
2021/09/20 07:08:56;;;;;;;27.42;12.98;;;;;;;10.60;98.31;95633.88;5016124;28;20052;-74
2021/09/20 07:11:22;;;;;;;28.88;14.13;;;;;;;10.60;98.57;95639.13;5014006;28;20085;-73
2021/09/20 07:13:48;;;;;;;28.77;13.88;;;;;;;10.46;99.06;95634.44;5017679;28;20050;-73
2021/09/20 07:16:13;;;;;;;31.40;14.23;;;;;;;10.51;99.82;95636.25;5010151;28;20030;-74
2021/09/20 07:18:39;;;;;;;26.73;13.40;;;;;;;10.34;99.82;95636.53;5029818;28;20086;-74
2021/09/20 07:21:05;;;;;;;35.75;14.77;;;;;;;10.41;99.65;95642.31;5013000;28;20035;-73
2021/09/20 07:23:30;;;;;;;31.80;13.93;;;;;;;10.44;100.00;95641.00;5021929;28;20026;-73
2021/09/20 07:25:56;;;;;;;32.08;14.95;;;;;;;10.36;98.80;95639.72;5007227;28;20069;-74
2021/09/20 07:28:22;;;;;;;31.23;14.82;;;;;;;10.40;98.55;95653.88;5022443;28;20050;-75
2021/09/20 07:30:48;;;;;;;32.67;15.20;;;;;;;10.36;98.18;95651.00;4993457;28;20038;-75
2021/09/20 07:33:14;;;;;;;33.63;16.08;;;;;;;10.52;100.00;95651.78;4986953;28;20051;-75
2021/09/20 07:35:40;;;;;;;29.38;14.93;;;;;;;10.50;99.51;95651.28;4987939;28;20044;-75
2021/09/20 07:38:07;;;;;;;37.40;16.38;;;;;;;10.47;100.00;95651.78;4987700;28;20049;-75
2021/09/20 07:40:33;;;;;;;30.58;15.52;;;;;;;10.55;100.00;95658.38;4987269;28;20050;-75
2021/09/20 07:42:59;;;;;;;36.53;16.35;;;;;;;10.43;100.00;95663.91;4988936;28;20530;-75
2021/09/20 07:45:25;;;;;;;35.85;15.63;;;;;;;10.63;100.00;95663.09;4996464;28;20046;-75
2021/09/20 07:47:51;;;;;;;33.03;15.25;;;;;;;10.48;98.21;95669.16;4977909;28;20066;-76
2021/09/20 07:50:18;;;;;;;36.35;14.20;;;;;;;10.56;99.26;95666.00;4991505;28;20069;-75
2021/09/20 07:52:46;;;;;;;34.92;14.88;;;;;;;10.55;100.00;95668.88;4994581;28;20104;-75
2021/09/20 07:55:15;;;;;;;35.95;16.10;;;;;;;10.50;100.00;95672.31;4994955;28;20206;-75
2021/09/20 07:57:41;;;;;;;35.20;16.02;;;;;;;10.51;100.00;95668.63;4993921;28;20072;-75
2021/09/20 08:00:10;;;;;;;36.97;17.52;;;;;;;10.50;100.00;95669.69;4996257;28;20121;-75
2021/09/20 08:02:36;;;;;;;34.53;16.67;;;;;;;10.60;98.79;95670.72;4993664;28;20539;-75
2021/09/20 08:05:01;;;;;;;33.92;15.50;;;;;;;10.77;100.00;95681.75;4990935;28;20105;-75
2021/09/20 08:07:27;;;;;;;33.45;14.85;;;;;;;10.77;97.54;95681.75;4994342;28;20049;-74
2021/09/20 08:09:53;;;;;;;30.02;14.40;;;;;;;10.43;96.40;95682.31;4996778;28;20401;-75
2021/09/20 08:12:18;;;;;;;33.20;15.90;;;;;;;10.44;99.38;95677.84;4990021;28;20121;-75
2021/09/20 08:14:44;;;;;;;30.27;14.77;;;;;;;10.55;98.37;95690.72;4985179;28;20047;-75
2021/09/20 08:17:11;;;;;;;35.90;15.02;;;;;;;10.70;100.00;95691.75;4990616;28;20049;-76
2021/09/20 08:19:37;;;;;;;37.15;16.58;;;;;;;10.64;100.00;95698.09;4994268;28;20089;-75
2021/09/20 08:22:03;;;;;;;31.70;15.52;;;;;;;10.54;100.00;95697.06;4998321;28;20034;-76
2021/09/20 08:24:28;;;;;;;36.67;16.13;;;;;;;10.38;98.38;95701.50;4988092;28;20045;-75
2021/09/20 08:26:54;;;;;;;37.83;16.05;;;;;;;10.37;100.00;95699.94;5005954;28;20049;-75
2021/09/20 08:29:20;;;;;;;35.47;16.65;;;;;;;10.77;100.00;95702.81;4997095;28;20053;-75
2021/09/20 08:31:45;;;;;;;35.78;16.00;;;;;;;10.87;100.00;95708.06;4993109;28;20037;-75
2021/09/20 08:34:11;;;;;;;34.28;16.08;;;;;;;10.74;99.17;95708.59;4992632;28;20107;-76
2021/09/20 08:36:37;;;;;;;35.85;15.93;;;;;;;10.61;100.00;95703.88;4994440;28;20073;-75
2021/09/20 08:39:04;;;;;;;34.20;15.95;;;;;;;10.33;96.52;95716.47;4992455;28;20046;-75
2021/09/20 08:41:30;;;;;;;33.72;16.55;;;;;;;10.18;100.00;95715.41;4989096;28;20092;-76
2021/09/20 08:43:56;;;;;;;36.92;17.25;;;;;;;10.17;100.00;95711.22;4999808;28;20038;-76
2021/09/20 08:46:22;;;;;;;34.90;15.55;;;;;;;10.47;100.00;95717.56;4987435;28;20050;-75
2021/09/20 08:48:50;;;;;;;38.42;16.33;;;;;;;10.44;100.00;95715.44;4994960;28;20053;-76
2021/09/20 08:51:18;;;;;;;33.03;15.52;;;;;;;10.86;100.00;95722.28;4992781;28;20540;-77
2021/09/20 08:53:45;;;;;;;32.15;15.38;;;;;;;10.94;98.52;95723.59;4990150;28;20090;-76
2021/09/20 08:56:14;;;;;;;32.45;15.27;;;;;;;11.01;98.38;95728.59;4994927;28;20054;-75
2021/09/20 08:58:40;;;;;;;30.95;14.98;;;;;;;11.02;99.42;95724.88;4994752;28;20073;-76
2021/09/20 09:01:06;;;;;;;34.47;15.27;;;;;;;11.10;97.34;95721.72;4990920;28;20481;-77
2021/09/20 09:03:32;;;;;;;30.75;14.98;;;;;;;11.11;98.28;95723.28;4989857;28;20048;-78
2021/09/20 09:05:58;;;;;;;28.23;13.57;;;;;;;11.24;98.28;95728.00;4984250;28;20043;-77
2021/09/20 09:08:37;;;;;;;28.25;13.45;;;;;;;11.17;97.25;95722.22;4998884;28;20416;-77
2021/09/20 09:11:12;;;;;;;30.45;13.38;;;;;;;11.23;98.93;95715.09;4989682;28;20528;-77
2021/09/20 09:13:44;;;;;;;29.20;12.93;;;;;;;11.30;97.78;95725.34;4973837;28;20599;-77
2021/09/20 09:16:19;;;;;;;25.83;12.45;;;;;;;11.27;97.68;95716.91;4990925;28;20043;-77
2021/09/20 09:18:57;;;;;;;27.13;13.27;;;;;;;11.34;97.07;95721.13;4976581;28;20054;-80
2021/09/20 09:21:27;;;;;;;26.58;13.02;;;;;;;11.37;98.19;95731.91;4993863;28;20042;-80
2021/09/20 09:24:08;;;;;;;27.80;12.50;;;;;;;11.44;96.37;95731.63;4999188;28;20584;-79
2021/09/20 09:26:35;;;;;;;29.63;13.45;;;;;;;11.50;94.68;95727.91;4992794;28;20051;-79
2021/09/20 09:29:14;;;;;;;24.92;12.65;;;;;;;11.41;95.52;95727.69;4986888;28;20105;-77
2021/09/20 09:31:49;;;;;;;31.35;13.82;;;;;;;11.60;95.96;95725.22;4986193;28;20042;-77
2021/09/20 09:34:21;;;;;;;30.23;13.55;;;;;;;11.81;96.40;95722.53;4998847;28;20058;-77
2021/09/20 09:36:48;;;;;;;29.63;13.15;;;;;;;11.90;94.60;95726.16;4984844;28;20047;-76
2021/09/20 09:39:24;;;;;;;26.52;13.38;;;;;;;11.93;94.15;95728.28;4989687;28;20113;-77
2021/09/20 09:41:50;;;;;;;29.23;12.38;;;;;;;12.08;96.29;95718.69;4987122;28;20045;-77
2021/09/20 09:44:15;;;;;;;23.00;12.25;;;;;;;12.10;91.34;95721.88;4987205;28;20576;-76
2021/09/20 09:46:47;;;;;;;30.70;13.18;;;;;;;12.25;95.45;95724.38;4984218;28;20039;-77
2021/09/20 09:49:18;;;;;;;25.45;11.38;;;;;;;12.21;92.33;95731.28;4984585;28;20058;-76
2021/09/20 09:51:54;;;;;;;24.50;11.52;;;;;;;12.12;91.25;95720.53;4996932;28;20053;-77
2021/09/20 09:54:33;;;;;;;24.15;11.55;;;;;;;12.27;91.20;95729.41;4984703;28;20144;-76
2021/09/20 09:57:15;;;;;;;22.00;10.45;;;;;;;12.44;89.57;95726.38;4987317;28;20042;-76
2021/09/20 09:59:42;;;;;;;23.02;11.25;;;;;;;12.67;90.53;95724.09;4983251;28;20049;-76
2021/09/20 10:02:38;;;;;;;22.55;10.98;;;;;;;12.63;86.68;95724.66;4987140;28;20504;-76
2021/09/20 10:05:17;;;;;;;26.25;11.27;;;;;;;12.69;91.27;95722.75;4975969;28;20062;-76
2021/09/20 10:07:48;;;;;;;18.88;9.40;;;;;;;12.61;86.49;95726.78;4987016;28;20073;-77
2021/09/20 10:10:23;;;;;;;18.92;9.48;;;;;;;12.56;91.23;95723.41;4983329;28;20042;-77
2021/09/20 10:12:50;;;;;;;;;;;;;;;12.68;88.97;95721.16;4994177;28;20058;-77
2021/09/20 10:15:19;;;;;;;19.52;9.30;;;;;;;12.67;89.64;95719.63;4989198;28;19922;-78
2021/09/20 10:17:45;;;;;;;18.35;9.48;;;;;;;12.74;88.54;95724.56;4988250;28;20229;-77
2021/09/20 10:20:18;;;;;;;19.17;9.38;;;;;;;12.81;87.28;95725.03;4982285;28;20236;-77
2021/09/20 10:22:44;;;;;;;20.10;10.02;;;;;;;13.00;87.61;95723.28;4989055;28;20130;-77
2021/09/20 10:25:12;;;;;;;19.63;9.52;;;;;;;13.10;85.43;95716.28;4982336;28;20039;-77
2021/09/20 10:27:38;;;;;;;19.75;9.45;;;;;;;12.92;83.00;95715.16;4989366;28;20617;-77
2021/09/20 10:30:15;;;;;;;16.95;8.15;;;;;;;12.96;83.74;95711.69;4986520;28;20046;-76
2021/09/20 10:32:44;;;;;;;15.52;7.95;;;;;;;13.13;84.87;95705.97;4986589;28;20053;-82
2021/09/20 10:35:25;;;;;;;16.38;8.52;;;;;;;13.34;83.82;95713.66;4988607;28;20496;-78
2021/09/20 10:37:52;;;;;;;15.98;8.45;;;;;;;13.42;81.98;95710.44;4982161;28;20051;-78
2021/09/20 10:40:19;;;;;;;17.90;8.80;;;;;;;13.66;82.91;95707.78;4981320;28;20042;-76
2021/09/20 10:42:47;;;;;;;17.75;8.77;;;;;;;13.98;81.79;95719.53;4983478;28;20112;-76
2021/09/20 10:45:37;;;;;;;18.17;9.13;;;;;;;14.40;78.92;95709.13;4994180;28;20060;-76
2021/09/20 10:48:15;;;;;;;17.58;9.07;;;;;;;14.55;76.56;95710.75;4973568;28;20045;-76
2021/09/20 10:50:44;;;;;;;15.15;8.38;;;;;;;14.93;76.94;95721.28;4987913;28;20054;-76
2021/09/20 10:53:19;;;;;;;14.80;7.75;;;;;;;15.67;74.78;95707.16;4980629;28;20038;-75
2021/09/20 10:56:03;;;;;;;15.65;7.88;;;;;;;15.97;71.05;95715.59;4986725;28;20042;-75
2021/09/20 10:58:29;;;;;;;13.98;7.72;;;;;;;16.30;71.62;95718.06;4984303;28;20117;-75
2021/09/20 11:01:10;;;;;;;14.82;7.78;;;;;;;16.47;67.89;95706.03;4986263;28;20251;-78
2021/09/20 11:04:00;;;;;;;19.55;8.50;;;;;;;16.50;70.17;95705.41;4985340;28;20062;-77
2021/09/20 11:06:32;;;;;;;16.17;8.52;;;;;;;17.51;67.14;95705.00;4979915;28;20043;-76
2021/09/20 11:08:58;;;;;;;13.88;7.05;;;;;;;17.05;65.18;95699.03;4980194;28;20424;-77
2021/09/20 11:11:42;;;;;;;13.38;6.97;;;;;;;16.37;70.09;95697.19;4991685;28;20065;-77
2021/09/20 11:14:36;;;;;;;13.18;7.60;;;;;;;16.03;76.45;95711.78;4989927;28;20360;-77
2021/09/20 11:17:18;;;;;;;13.57;8.10;;;;;;;15.74;71.65;95698.81;4989713;28;20043;-78
2021/09/20 11:19:45;;;;;;;14.13;7.38;;;;;;;15.01;73.30;95707.38;5003518;28;20831;-76
2021/09/20 11:22:16;;;;;;;13.43;6.82;;;;;;;15.91;71.36;95708.84;4978594;28;20047;-77